createdAt,value
2023-05-14T00:02:21.193Z,101856.56
2023-05-14T00:04:53.199Z,101848.69
2023-05-14T00:07:19.975Z,101847.41
2023-05-14T00:09:50.438Z,101849.25
2023-05-14T00:12:17.130Z,101852.94
2023-05-14T00:14:43.899Z,101852.88
2023-05-14T00:17:10.886Z,101850.59
2023-05-14T00:19:37.666Z,101850.13
2023-05-14T00:22:07.335Z,101855.66
2023-05-14T00:24:34.046Z,101855.22
2023-05-14T00:27:00.726Z,101848.97
2023-05-14T00:29:27.452Z,101850.00
2023-05-14T00:31:54.161Z,101852.84
2023-05-14T00:34:21.027Z,101850.38
2023-05-14T00:36:47.924Z,101843.94
2023-05-14T00:39:15.993Z,101844.69
2023-05-14T00:41:43.084Z,101841.19
2023-05-14T00:44:10.195Z,101837.06
2023-05-14T00:46:37.074Z,101834.94
2023-05-14T00:49:03.940Z,101827.13
2023-05-14T00:51:31.275Z,101834.13
2023-05-14T00:54:00.672Z,101831.84
2023-05-14T00:56:29.178Z,101835.88
2023-05-14T00:59:24.461Z,101823.06
2023-05-14T01:01:51.238Z,101823.44
2023-05-14T01:04:18.309Z,101814.78
2023-05-14T01:06:52.292Z,101826.31
2023-05-14T01:09:26.904Z,101823.84
2023-05-14T01:12:01.412Z,101819.13
2023-05-14T01:14:37.433Z,101817.25
2023-05-14T01:17:06.379Z,101816.16
2023-05-14T01:19:41.364Z,101811.63
2023-05-14T01:22:10.819Z,101816.56
2023-05-14T01:24:37.654Z,101820.25
2023-05-14T01:27:19.825Z,101816.75
2023-05-14T01:29:52.158Z,101811.75
2023-05-14T01:32:23.614Z,101820.19
2023-05-14T01:34:50.980Z,101816.69
2023-05-14T01:37:19.270Z,101803.84
2023-05-14T01:39:51.972Z,101805.44
2023-05-14T01:42:18.648Z,101807.69
2023-05-14T01:44:45.439Z,101810.91
2023-05-14T01:47:12.286Z,101811.13
2023-05-14T01:49:40.475Z,101811.13
2023-05-14T01:52:08.548Z,101802.44
2023-05-14T01:54:36.573Z,101799.31
2023-05-14T01:57:03.540Z,101806.50
2023-05-14T01:59:30.157Z,101810.03
2023-05-14T02:01:56.905Z,101799.31
2023-05-14T02:04:23.720Z,101795.81
2023-05-14T02:06:50.462Z,101797.88
2023-05-14T02:09:17.149Z,101795.56
2023-05-14T02:11:45.394Z,101807.84
2023-05-14T02:14:12.203Z,101804.53
2023-05-14T02:16:38.885Z,101804.09
2023-05-14T02:19:05.657Z,101800.13
2023-05-14T02:21:34.850Z,101805.84
2023-05-14T02:24:01.613Z,101804.19
2023-05-14T02:26:28.385Z,101797.34
2023-05-14T02:28:56.962Z,101794.06
2023-05-14T02:31:24.351Z,101794.25
2023-05-14T02:33:51.492Z,101786.75
2023-05-14T02:36:18.377Z,101791.66
2023-05-14T02:38:45.591Z,101786.69
2023-05-14T02:41:12.349Z,101784.41
2023-05-14T02:43:39.094Z,101792.34
2023-05-14T02:46:07.272Z,101783.41
2023-05-14T02:48:34.018Z,101785.13
2023-05-14T02:51:00.836Z,101776.81
2023-05-14T02:53:27.620Z,101774.34
2023-05-14T02:55:54.326Z,101775.97
2023-05-14T02:58:25.769Z,101774.78
2023-05-14T03:00:59.434Z,101775.97
2023-05-14T03:03:29.647Z,101782.56
2023-05-14T03:05:56.879Z,101777.56
2023-05-14T03:08:24.872Z,101776.72
2023-05-14T03:10:51.686Z,101786.97
2023-05-14T03:13:20.800Z,101781.81
2023-05-14T03:15:47.769Z,101784.03
2023-05-14T03:18:15.382Z,101781.72
2023-05-14T03:20:43.533Z,101779.22
2023-05-14T03:23:11.063Z,101770.75
2023-05-14T03:25:37.974Z,101766.59
2023-05-14T03:28:04.990Z,101765.94
2023-05-14T03:30:32.056Z,101759.97
2023-05-14T03:32:59.097Z,101762.81
2023-05-14T03:35:25.952Z,101756.38
2023-05-14T03:37:54.101Z,101766.59
2023-05-14T03:40:21.513Z,101767.78
2023-05-14T03:42:48.598Z,101772.50
2023-05-14T03:45:15.359Z,101767.31
2023-05-14T03:47:42.214Z,101760.50
2023-05-14T03:50:09.346Z,101756.16
2023-05-14T03:52:36.218Z,101759.22
2023-05-14T03:55:05.112Z,101751.09
2023-05-14T03:57:31.875Z,101754.59
2023-05-14T03:59:58.756Z,101752.09
2023-05-14T04:02:25.513Z,101751.28
2023-05-14T04:04:52.339Z,101748.94
2023-05-14T04:07:19.211Z,101751.81
2023-05-14T04:09:46.205Z,101747.66
2023-05-14T04:12:14.242Z,101756.69
2023-05-14T04:14:41.086Z,101753.75
2023-05-14T04:17:07.818Z,101753.91
2023-05-14T04:19:34.896Z,101761.94
2023-05-14T04:22:01.641Z,101762.94
2023-05-14T04:24:28.469Z,101755.75
2023-05-14T04:26:55.196Z,101762.09
2023-05-14T04:29:23.233Z,101755.47
2023-05-14T04:31:50.210Z,101755.53
2023-05-14T04:34:17.087Z,101755.59
2023-05-14T04:36:44.637Z,101753.94
2023-05-14T04:39:12.471Z,101754.50
2023-05-14T04:41:39.227Z,101759.88
2023-05-14T04:44:06.038Z,101750.72
2023-05-14T04:46:34.268Z,101753.94
2023-05-14T04:49:01.381Z,101754.13
2023-05-14T04:51:28.650Z,101758.91
2023-05-14T04:53:55.580Z,101757.22
2023-05-14T04:56:22.444Z,101762.22
2023-05-14T04:58:49.259Z,101761.66
2023-05-14T05:01:16.874Z,101748.44
2023-05-14T05:03:45.010Z,101765.56
2023-05-14T05:06:11.885Z,101756.19
2023-05-14T05:08:38.810Z,101765.31
2023-05-14T05:11:05.757Z,101762.09
2023-05-14T05:13:32.457Z,101760.09
2023-05-14T05:15:59.473Z,101762.59
2023-05-14T05:18:26.297Z,101768.38
2023-05-14T05:20:56.960Z,101767.19
2023-05-14T05:23:23.674Z,101770.53
2023-05-14T05:25:51.107Z,101769.31
2023-05-14T05:28:19.213Z,101770.31
2023-05-14T05:30:46.013Z,101766.84
2023-05-14T05:33:12.847Z,101763.97
2023-05-14T05:35:39.657Z,101764.28
2023-05-14T05:38:07.817Z,101768.22
2023-05-14T05:40:34.694Z,101777.25
2023-05-14T05:43:01.598Z,101767.06
2023-05-14T05:45:28.390Z,101776.34
2023-05-14T05:47:55.344Z,101770.81
2023-05-14T05:50:22.878Z,101772.50
2023-05-14T05:52:49.798Z,101771.28
2023-05-14T05:55:18.071Z,101777.94
2023-05-14T05:57:44.840Z,101774.25
2023-05-14T06:00:15.282Z,101777.53
2023-05-14T06:02:42.333Z,101776.72
2023-05-14T06:05:10.823Z,101784.94
2023-05-14T06:07:37.685Z,101785.56
2023-05-14T06:10:06.528Z,101788.13
2023-05-14T06:12:34.750Z,101785.19
2023-05-14T06:15:01.486Z,101781.13
2023-05-14T06:17:28.330Z,101775.91
2023-05-14T06:19:56.263Z,101781.72
2023-05-14T06:22:23.409Z,101776.84
2023-05-14T06:24:50.179Z,101776.09
2023-05-14T06:27:17.283Z,101778.69
2023-05-14T06:29:45.324Z,101776.72
2023-05-14T06:32:15.519Z,101782.16
2023-05-14T06:34:44.111Z,101782.06
2023-05-14T06:37:12.345Z,101788.19
2023-05-14T06:39:39.449Z,101775.72
2023-05-14T06:42:07.470Z,101780.97
2023-05-14T06:44:34.136Z,101787.59
2023-05-14T06:47:02.207Z,101780.28
2023-05-14T06:49:28.998Z,101775.47
2023-05-14T06:51:55.762Z,101780.91
2023-05-14T06:54:22.438Z,101770.06
2023-05-14T06:56:49.283Z,101769.13
2023-05-14T06:59:19.419Z,101770.81
2023-05-14T07:01:47.713Z,101770.06
2023-05-14T07:04:15.956Z,101773.00
2023-05-14T07:06:42.737Z,101764.56
2023-05-14T07:09:10.659Z,101770.00
2023-05-14T07:11:37.375Z,101771.09
2023-05-14T07:14:04.497Z,101763.09
2023-05-14T07:16:31.278Z,101760.00
2023-05-14T07:18:58.254Z,101760.50
2023-05-14T07:21:26.472Z,101766.09
2023-05-14T07:23:53.116Z,101760.78
2023-05-14T07:26:19.890Z,101754.63
2023-05-14T07:28:46.611Z,101761.94
2023-05-14T07:31:13.392Z,101752.44
2023-05-14T07:33:40.083Z,101756.00
2023-05-14T07:36:07.827Z,101750.69
2023-05-14T07:38:36.205Z,101752.19
2023-05-14T07:41:03.021Z,101756.75
2023-05-14T07:43:29.921Z,101754.28
2023-05-14T07:45:56.650Z,101748.53
2023-05-14T07:48:23.438Z,101747.13
2023-05-14T07:50:51.628Z,101745.69
2023-05-14T07:53:18.565Z,101743.25
2023-05-14T07:55:48.458Z,101743.25
2023-05-14T07:58:16.114Z,101746.16
2023-05-14T08:00:42.794Z,101741.25
2023-05-14T08:03:09.845Z,101739.41
2023-05-14T08:05:36.717Z,101746.66
2023-05-14T08:08:03.664Z,101738.00
2023-05-14T08:10:30.787Z,101741.78
2023-05-14T08:12:58.857Z,101736.63
2023-05-14T08:15:27.712Z,101736.44
2023-05-14T08:17:54.942Z,101736.25
2023-05-14T08:20:22.300Z,101740.16
2023-05-14T08:22:49.491Z,101735.44
2023-05-14T08:25:16.454Z,101731.53
2023-05-14T08:27:43.731Z,101731.94
2023-05-14T08:30:12.663Z,101728.63
2023-05-14T08:32:42.031Z,101735.22
2023-05-14T08:35:09.913Z,101735.22
2023-05-14T08:37:36.845Z,101741.66
2023-05-14T08:40:04.654Z,101739.38
2023-05-14T08:42:32.047Z,101736.06
2023-05-14T08:45:02.205Z,101727.38
2023-05-14T08:47:31.482Z,101735.84
2023-05-14T08:50:03.099Z,101728.19
2023-05-14T08:52:30.465Z,101731.06
2023-05-14T08:55:00.415Z,101728.16
2023-05-14T08:57:28.657Z,101724.41
2023-05-14T08:59:55.813Z,101726.06
2023-05-14T09:02:25.009Z,101725.00
2023-05-14T09:04:56.644Z,101725.13
2023-05-14T09:07:23.886Z,101708.13
2023-05-14T09:09:51.249Z,101713.91
2023-05-14T09:12:18.067Z,101713.44
2023-05-14T09:14:45.805Z,101701.22
2023-05-14T09:17:12.846Z,101704.44
2023-05-14T09:19:40.592Z,101702.94
2023-05-14T09:22:11.978Z,101695.44
2023-05-14T09:24:40.178Z,101695.75
2023-05-14T09:27:07.582Z,101694.88
2023-05-14T09:29:34.402Z,101686.53
2023-05-14T09:32:07.943Z,101685.63
2023-05-14T09:34:38.378Z,101684.16
2023-05-14T09:37:06.845Z,101671.88
2023-05-14T09:39:39.223Z,101673.13
2023-05-14T09:42:06.815Z,101674.91
2023-05-14T09:44:33.606Z,101670.06
2023-05-14T09:47:02.036Z,101672.53
2023-05-14T09:49:28.764Z,101667.28
2023-05-14T09:51:58.786Z,101661.19
2023-05-14T09:54:27.428Z,101664.44
2023-05-14T09:56:56.028Z,101661.22
2023-05-14T09:59:23.237Z,101660.09
2023-05-14T10:01:54.236Z,101663.28
2023-05-14T10:04:23.372Z,101658.41
2023-05-14T10:06:53.705Z,101657.72
2023-05-14T10:09:26.314Z,101645.66
2023-05-14T10:11:59.079Z,101642.72
2023-05-14T10:14:33.997Z,101649.09
2023-05-14T10:17:03.216Z,101645.47
2023-05-14T10:19:36.951Z,101642.94
2023-05-14T10:22:08.074Z,101644.97
2023-05-14T10:24:40.293Z,101645.69
2023-05-14T10:27:08.646Z,101645.81
2023-05-14T10:29:46.096Z,101639.50
2023-05-14T10:34:46.283Z,101639.22
2023-05-14T10:37:16.708Z,101641.69
2023-05-14T10:39:47.145Z,101630.78
2023-05-14T10:42:23.360Z,101623.59
2023-05-14T10:45:07.592Z,101629.13
2023-05-14T10:47:36.872Z,101626.06
2023-05-14T10:50:07.029Z,101617.66
2023-05-14T10:52:39.842Z,101614.00
2023-05-14T10:55:12.955Z,101616.56
2023-05-14T10:57:46.759Z,101620.47
2023-05-14T11:00:15.153Z,101612.34
2023-05-14T11:02:44.027Z,101619.66
2023-05-14T11:05:14.396Z,101610.13
2023-05-14T11:07:43.295Z,101614.69
2023-05-14T11:10:11.859Z,101613.88
2023-05-14T11:12:42.023Z,101610.13
2023-05-14T11:15:11.086Z,101610.34
2023-05-14T11:17:40.608Z,101613.31
2023-05-14T11:20:10.869Z,101611.88
2023-05-14T11:22:39.904Z,101611.88
2023-05-14T11:25:09.060Z,101605.88
2023-05-14T11:27:38.368Z,101598.81
2023-05-14T11:30:13.577Z,101594.72
2023-05-14T11:32:42.497Z,101595.78
2023-05-14T11:37:52.992Z,101586.34
2023-05-14T11:40:22.150Z,101581.44
2023-05-14T11:42:51.710Z,101583.53
2023-05-14T11:45:30.003Z,101581.88
2023-05-14T11:47:59.515Z,101577.53
2023-05-14T11:50:28.142Z,101578.59
2023-05-14T11:52:57.144Z,101581.06
2023-05-14T11:55:25.549Z,101582.94
2023-05-14T11:57:55.506Z,101582.13
2023-05-14T12:00:26.475Z,101590.22
2023-05-14T12:02:57.874Z,101582.34
2023-05-14T12:05:26.227Z,101579.41
2023-05-14T12:07:53.191Z,101575.66
2023-05-14T12:10:21.403Z,101567.53
2023-05-14T12:12:52.698Z,101573.78
2023-05-14T12:15:25.421Z,101570.03
2023-05-14T12:17:53.914Z,101565.44
2023-05-14T12:20:26.473Z,101560.25
2023-05-14T12:22:54.996Z,101566.25
2023-05-14T12:25:21.768Z,101562.00
2023-05-14T12:27:48.770Z,101554.88
2023-05-14T12:30:21.953Z,101553.69
2023-05-14T12:32:53.988Z,101546.50
2023-05-14T12:35:23.000Z,101548.50
2023-05-14T12:37:50.449Z,101547.19
2023-05-14T12:40:20.050Z,101545.91
2023-05-14T12:42:48.765Z,101546.25
2023-05-14T12:45:17.432Z,101549.53
2023-05-14T12:47:44.674Z,101548.22
2023-05-14T12:50:13.667Z,101542.00
2023-05-14T12:52:44.120Z,101541.03
2023-05-14T12:55:12.718Z,101536.81
2023-05-14T12:57:39.814Z,101527.50
2023-05-14T13:00:14.201Z,101527.56
2023-05-14T13:02:49.795Z,101532.25
2023-05-14T13:05:18.203Z,101532.34
2023-05-14T13:07:46.646Z,101530.81
2023-05-14T13:10:13.443Z,101528.69
2023-05-14T13:12:40.589Z,101527.38
2023-05-14T13:15:09.017Z,101527.97
2023-05-14T13:17:36.565Z,101526.44
2023-05-14T13:20:04.850Z,101519.47
2023-05-14T13:22:31.919Z,101517.38
2023-05-14T13:25:00.279Z,101517.44
2023-05-14T13:27:27.865Z,101524.00
2023-05-14T13:29:56.079Z,101526.81
2023-05-14T13:32:24.055Z,101520.06
2023-05-14T13:34:52.254Z,101519.84
2023-05-14T13:37:20.850Z,101517.13
2023-05-14T13:39:49.489Z,101507.94
2023-05-14T13:42:20.497Z,101507.59
2023-05-14T13:44:50.321Z,101503.50
2023-05-14T13:47:17.276Z,101502.09
2023-05-14T13:49:44.098Z,101502.91
2023-05-14T13:52:12.315Z,101501.84
2023-05-14T13:54:40.345Z,101499.97
2023-05-14T13:57:07.679Z,101504.56
2023-05-14T13:59:36.670Z,101486.91
2023-05-14T14:02:05.001Z,101486.31
2023-05-14T14:04:32.467Z,101484.38
2023-05-14T14:06:59.438Z,101494.88
2023-05-14T14:09:26.254Z,101487.00
2023-05-14T14:11:53.506Z,101481.22
2023-05-14T14:14:22.951Z,101482.25
2023-05-14T14:16:52.282Z,101476.06
2023-05-14T14:19:19.755Z,101480.66
2023-05-14T14:21:48.428Z,101477.13
2023-05-14T14:24:17.328Z,101478.41
2023-05-14T14:26:44.298Z,101468.88
2023-05-14T14:29:11.616Z,101474.28
2023-05-14T14:31:39.040Z,101469.97
2023-05-14T14:34:09.517Z,101473.75
2023-05-14T14:36:36.917Z,101465.25
2023-05-14T14:39:05.048Z,101465.78
2023-05-14T14:41:34.256Z,101463.78
2023-05-14T14:44:05.238Z,101465.34
2023-05-14T14:46:32.400Z,101458.19
2023-05-14T14:49:00.649Z,101460.31
2023-05-14T14:51:30.320Z,101456.47
2023-05-14T14:53:58.214Z,101456.09
2023-05-14T14:56:25.201Z,101455.78
2023-05-14T14:58:52.199Z,101450.84
2023-05-14T15:01:19.275Z,101458.97
2023-05-14T15:03:48.435Z,101451.06
2023-05-14T15:06:15.777Z,101457.22
2023-05-14T15:08:44.326Z,101456.41
2023-05-14T15:11:11.372Z,101453.34
2023-05-14T15:13:40.164Z,101457.59
2023-05-14T15:16:09.387Z,101454.53
2023-05-14T15:18:37.907Z,101458.56
2023-05-14T15:21:05.085Z,101460.91
2023-05-14T15:23:31.848Z,101455.41
2023-05-14T15:26:02.821Z,101450.34
2023-05-14T15:28:29.561Z,101452.13
2023-05-14T15:30:56.648Z,101449.31
2023-05-14T15:33:26.657Z,101443.66
2023-05-14T15:35:53.823Z,101441.44
2023-05-14T15:38:24.260Z,101444.16
2023-05-14T15:40:54.175Z,101444.59
2023-05-14T15:43:22.864Z,101435.69
2023-05-14T15:45:50.686Z,101433.78
2023-05-14T15:48:18.079Z,101432.66
2023-05-14T15:50:44.943Z,101433.69
2023-05-14T15:53:11.923Z,101431.00
2023-05-14T15:55:38.690Z,101429.13
2023-05-14T15:58:06.351Z,101424.88
2023-05-14T16:00:34.450Z,101428.66
2023-05-14T16:03:01.832Z,101433.78
2023-05-14T16:05:29.823Z,101434.06
2023-05-14T16:07:58.128Z,101433.47
2023-05-14T16:10:25.227Z,101435.00
2023-05-14T16:12:52.269Z,101436.31
2023-05-14T16:15:19.372Z,101435.72
2023-05-14T16:17:47.563Z,101440.88
2023-05-14T16:20:16.048Z,101440.19
2023-05-14T16:22:42.755Z,101440.31
2023-05-14T16:25:11.021Z,101433.50
2023-05-14T16:27:40.214Z,101433.16
2023-05-14T16:30:10.103Z,101428.22
2023-05-14T16:32:37.449Z,101423.03
2023-05-14T16:35:06.749Z,101429.28
2023-05-14T16:37:33.465Z,101430.09
2023-05-14T16:40:00.587Z,101425.75
2023-05-14T16:42:30.374Z,101422.94
2023-05-14T16:44:57.177Z,101428.34
2023-05-14T16:47:24.282Z,101424.00
2023-05-14T16:49:52.321Z,101429.41
2023-05-14T16:52:23.422Z,101436.69
2023-05-14T16:54:50.600Z,101436.78
2023-05-14T16:57:17.568Z,101431.06
2023-05-14T16:59:46.325Z,101425.53
2023-05-14T17:02:14.574Z,101431.41
2023-05-14T17:04:43.410Z,101434.34
2023-05-14T17:07:10.646Z,101423.75
2023-05-14T17:09:39.107Z,101431.50
2023-05-14T17:12:11.262Z,101433.00
2023-05-14T17:14:39.219Z,101430.53
2023-05-14T17:17:06.470Z,101424.19
2023-05-14T17:19:33.262Z,101429.69
2023-05-14T17:22:07.165Z,101429.94
2023-05-14T17:24:36.848Z,101434.75
2023-05-14T17:27:06.498Z,101436.84
2023-05-14T17:29:33.752Z,101434.88
2023-05-14T17:32:00.931Z,101440.72
2023-05-14T17:34:27.971Z,101434.72
2023-05-14T17:36:55.146Z,101434.38
2023-05-14T17:39:22.813Z,101433.44
2023-05-14T17:41:49.601Z,101427.31
2023-05-14T17:44:18.879Z,101427.75
2023-05-14T17:46:50.297Z,101433.59
2023-05-14T17:49:17.880Z,101430.06
2023-05-14T17:51:44.720Z,101433.03
2023-05-14T17:54:11.489Z,101437.91
2023-05-14T17:56:38.687Z,101440.03
2023-05-14T17:59:07.467Z,101446.94
2023-05-14T18:01:37.478Z,101446.19
2023-05-14T18:04:11.377Z,101451.81
2023-05-14T18:06:42.830Z,101450.56
2023-05-14T18:09:10.530Z,101451.66
2023-05-14T18:11:37.542Z,101456.53
2023-05-14T18:14:04.533Z,101459.09
2023-05-14T18:16:31.608Z,101459.53
2023-05-14T18:19:03.721Z,101450.28
2023-05-14T18:21:32.650Z,101452.22
2023-05-14T18:24:07.518Z,101454.31
2023-05-14T18:26:37.164Z,101456.88
2023-05-14T18:29:07.513Z,101454.91
2023-05-14T18:31:35.324Z,101462.09
2023-05-14T18:34:05.845Z,101457.59
2023-05-14T18:36:41.590Z,101461.19
2023-05-14T18:39:09.247Z,101459.81
2023-05-14T18:41:36.699Z,101467.75
2023-05-14T18:44:04.100Z,101462.00
2023-05-14T18:46:30.969Z,101476.34
2023-05-14T18:49:00.166Z,101468.41
2023-05-14T18:51:29.561Z,101477.13
2023-05-14T18:53:56.505Z,101471.78
2023-05-14T18:56:23.617Z,101478.03
2023-05-14T18:58:52.124Z,101481.63
2023-05-14T19:01:22.074Z,101482.69
2023-05-14T19:03:49.142Z,101478.59
2023-05-14T19:06:16.342Z,101483.44
2023-05-14T19:08:47.048Z,101491.94
2023-05-14T19:11:14.898Z,101490.97
2023-05-14T19:13:44.854Z,101487.50
2023-05-14T19:16:15.394Z,101491.84
2023-05-14T19:18:43.144Z,101499.13
2023-05-14T19:21:10.839Z,101490.91
2023-05-14T19:23:38.536Z,101492.59
2023-05-14T19:26:06.963Z,101496.72
2023-05-14T19:28:34.079Z,101493.47
2023-05-14T19:31:02.018Z,101494.09
2023-05-14T19:33:28.914Z,101491.00
2023-05-14T19:35:59.399Z,101511.25
2023-05-14T19:38:26.586Z,101496.00
2023-05-14T19:41:05.482Z,101504.91
2023-05-14T19:43:42.758Z,101507.97
2023-05-14T19:46:09.640Z,101517.03
2023-05-14T19:48:36.890Z,101514.56
2023-05-14T19:51:13.839Z,101517.03
2023-05-14T19:53:41.184Z,101516.63
2023-05-14T19:56:11.683Z,101519.72
2023-05-14T19:58:44.176Z,101517.03
2023-05-14T20:01:14.803Z,101518.06
2023-05-14T20:03:45.027Z,101517.41
2023-05-14T20:06:13.465Z,101506.88
2023-05-14T20:08:48.978Z,101508.31
2023-05-14T20:11:20.215Z,101502.31
2023-05-14T20:13:51.018Z,101513.66
2023-05-14T20:16:24.881Z,101506.44
2023-05-14T20:18:53.919Z,101503.72
2023-05-14T20:21:21.874Z,101511.97
2023-05-14T20:23:50.059Z,101500.41
2023-05-14T20:26:20.355Z,101500.94
2023-05-14T20:28:50.682Z,101497.63
2023-05-14T20:31:19.534Z,101500.03
2023-05-14T20:33:48.351Z,101501.28
2023-05-14T20:36:16.087Z,101491.78
2023-05-14T20:38:43.042Z,101499.38
2023-05-14T20:41:16.415Z,101500.44
2023-05-14T20:43:47.188Z,101506.56
2023-05-14T20:46:15.417Z,101511.31
2023-05-14T20:48:44.160Z,101518.28
2023-05-14T20:51:12.121Z,101516.19
2023-05-14T20:53:39.204Z,101511.00
2023-05-14T20:56:09.167Z,101510.97
2023-05-14T20:58:36.856Z,101500.88
2023-05-14T21:01:05.101Z,101504.97
2023-05-14T21:03:33.091Z,101502.50
2023-05-14T21:06:10.495Z,101495.47
2023-05-14T21:08:40.751Z,101500.00
2023-05-14T21:11:09.020Z,101501.47
2023-05-14T21:13:36.074Z,101508.22
2023-05-14T21:16:03.531Z,101508.03
2023-05-14T21:18:33.082Z,101505.78
2023-05-14T21:21:01.192Z,101507.47
2023-05-14T21:23:28.179Z,101507.47
2023-05-14T21:25:55.120Z,101511.59
2023-05-14T21:28:22.559Z,101499.41
2023-05-14T21:30:50.636Z,101511.53
2023-05-14T21:33:18.661Z,101501.25
2023-05-14T21:35:45.453Z,101505.63
2023-05-14T21:38:14.771Z,101508.94
2023-05-14T21:40:41.602Z,101512.22
2023-05-14T21:43:08.395Z,101503.53
2023-05-14T21:45:36.984Z,101499.66
2023-05-14T21:48:04.398Z,101494.72
2023-05-14T21:50:31.235Z,101493.50
2023-05-14T21:52:58.006Z,101486.88
2023-05-14T21:55:27.676Z,101487.88
2023-05-14T21:57:55.113Z,101483.75
2023-05-14T22:00:24.409Z,101475.28
2023-05-14T22:02:53.353Z,101483.50
2023-05-14T22:05:32.227Z,101481.00
2023-05-14T22:07:59.319Z,101471.28
2023-05-14T22:10:27.424Z,101477.00
2023-05-14T22:12:54.219Z,101472.63
2023-05-14T22:15:20.991Z,101473.84
2023-05-14T22:17:48.205Z,101475.69
2023-05-14T22:20:16.426Z,101468.44
2023-05-14T22:22:43.182Z,101467.00
2023-05-14T22:25:10.488Z,101473.78
2023-05-14T22:27:38.910Z,101467.19
2023-05-14T22:30:07.141Z,101464.88
2023-05-14T22:32:33.924Z,101457.31
2023-05-14T22:35:00.722Z,101464.13
2023-05-14T22:37:27.595Z,101467.03
2023-05-14T22:39:54.404Z,101468.50
2023-05-14T22:42:21.149Z,101463.94
2023-05-14T22:44:49.220Z,101460.03
2023-05-14T22:47:16.632Z,101451.56
2023-05-14T22:49:43.707Z,101447.44
2023-05-14T22:52:10.638Z,101448.44
2023-05-14T22:54:37.402Z,101448.44
2023-05-14T22:57:04.846Z,101456.09
2023-05-14T22:59:31.719Z,101450.34
2023-05-14T23:01:59.792Z,101458.81
2023-05-14T23:04:27.898Z,101462.09
2023-05-14T23:06:54.753Z,101456.75
2023-05-14T23:09:40.330Z,101452.22
2023-05-14T23:12:07.814Z,101445.00
2023-05-14T23:14:34.524Z,101443.75
2023-05-14T23:17:02.600Z,101444.72
2023-05-14T23:19:29.668Z,101445.19
2023-05-14T23:21:58.294Z,101439.75
2023-05-14T23:24:26.173Z,101448.72
2023-05-14T23:26:52.993Z,101446.81
2023-05-14T23:29:19.696Z,101433.84
2023-05-14T23:31:46.560Z,101439.56
2023-05-14T23:34:14.762Z,101422.28
2023-05-14T23:36:41.944Z,101425.13
2023-05-14T23:39:08.674Z,101426.53
2023-05-14T23:41:35.431Z,101419.72
2023-05-14T23:44:02.375Z,101408.78
2023-05-14T23:46:29.477Z,101410.44
2023-05-14T23:48:57.197Z,101417.63
2023-05-14T23:51:28.520Z,101428.94
2023-05-14T23:53:58.453Z,101427.94
2023-05-14T23:56:26.200Z,101423.78
2023-05-14T23:58:53.367Z,101413.88
